Accedi per prenotare

Caricamento...

Situazione Metar e Taf aeroporto Pisa - Effemeridi Aeroporto Lucca

[Source: ADDS]
METAR
LIRP 190915Z VRB02KT 9999 SCT050 13/03 Q1016 NOSIG =
LIRP 190500Z 1906/2006 12008KT 9999 SCT070 TEMPO 1906/1918 5000 RA BR SCT030 BKN060 BECMG 1910/1912 30012KT BECMG 1920/1922 06005KT TEMPO 1923/2006 3000 BR
TAF
LIRP 190500Z 1906/2006 12008KT 9999 SCT070 TEMPO 1906/1918 5000 RA BR SCT030 BKN060 BECMG 1910/1912 30012KT BECMG 1920/1922 06005KT TEMPO 1923/2006 3000 BR =
SR / SS: 04:31 / 18:07 UTC (Effemeridi LIQL 2021-04-19)